createdAt,value
2019-03-29T00:03:29.383Z,16.03
2019-03-29T00:08:32.690Z,15.63
2019-03-29T00:13:39.248Z,17.57
2019-03-29T00:18:42.786Z,16.77
2019-03-29T00:23:46.086Z,18.00
2019-03-29T00:28:49.376Z,18.40
2019-03-29T00:33:52.664Z,18.37
2019-03-29T00:38:55.944Z,17.30
2019-03-29T00:43:59.505Z,18.73
2019-03-29T00:49:03.961Z,16.70
2019-03-29T00:54:07.514Z,18.43
2019-03-29T00:59:11.061Z,17.40
2019-03-29T01:04:14.367Z,17.73
2019-03-29T01:09:17.677Z,18.40
2019-03-29T01:14:21.209Z,18.27
2019-03-29T01:19:24.749Z,18.17
2019-03-29T01:24:28.292Z,19.20
2019-03-29T01:29:31.586Z,22.50
2019-03-29T01:34:34.866Z,18.80
2019-03-29T01:39:38.654Z,18.40
2019-03-29T01:44:42.208Z,19.47
2019-03-29T01:49:45.757Z,20.53
2019-03-29T01:54:49.312Z,16.40
2019-03-29T01:59:52.599Z,18.67
2019-03-29T02:04:55.939Z,17.93
2019-03-29T02:09:59.492Z,16.97
2019-03-29T02:15:02.795Z,19.03
2019-03-29T02:20:08.078Z,17.17
2019-03-29T02:25:11.550Z,19.80
2019-03-29T02:30:15.187Z,22.47
2019-03-29T02:35:18.483Z,19.70
2019-03-29T02:40:22.794Z,21.00
2019-03-29T02:45:26.455Z,20.47
2019-03-29T02:50:29.763Z,21.57
2019-03-29T02:55:33.048Z,21.00
2019-03-29T03:00:36.611Z,22.20
2019-03-29T03:05:39.883Z,18.73
2019-03-29T03:10:43.187Z,16.47
2019-03-29T03:15:46.492Z,19.10
2019-03-29T03:20:49.799Z,21.83
2019-03-29T03:25:53.190Z,20.50
2019-03-29T03:30:56.497Z,22.30
2019-03-29T03:36:00.050Z,20.53
2019-03-29T03:41:03.596Z,19.03
2019-03-29T03:46:07.161Z,20.03
2019-03-29T03:51:10.528Z,21.73
2019-03-29T03:56:16.084Z,19.67
2019-03-29T04:01:19.385Z,22.43
2019-03-29T04:06:22.763Z,17.53
2019-03-29T04:11:26.313Z,20.53
2019-03-29T04:16:29.631Z,21.13
2019-03-29T04:21:33.168Z,22.23
2019-03-29T04:26:36.469Z,21.00
2019-03-29T04:31:39.784Z,22.10
2019-03-29T04:36:43.078Z,20.03
2019-03-29T04:41:46.629Z,20.80
2019-03-29T04:46:49.937Z,21.90
2019-03-29T04:51:53.222Z,20.77
2019-03-29T04:56:56.757Z,18.47
2019-03-29T05:02:00.053Z,21.47
2019-03-29T05:07:03.589Z,21.77
2019-03-29T05:12:07.142Z,21.13
2019-03-29T05:17:10.428Z,20.40
2019-03-29T05:22:13.727Z,21.30
2019-03-29T05:27:17.284Z,19.87
2019-03-29T05:32:20.590Z,22.57
2019-03-29T05:37:23.889Z,25.90
2019-03-29T05:42:27.198Z,23.00
2019-03-29T05:47:30.525Z,21.53
2019-03-29T05:52:34.078Z,19.77
2019-03-29T05:57:37.375Z,20.77
2019-03-29T06:02:40.657Z,21.83
2019-03-29T06:07:44.703Z,20.53
2019-03-29T06:12:47.991Z,21.73
2019-03-29T06:17:51.551Z,21.23
2019-03-29T06:22:54.875Z,22.90
2019-03-29T06:27:58.171Z,20.87
2019-03-29T06:33:01.735Z,19.80
2019-03-29T06:38:06.756Z,24.27
2019-03-29T06:43:10.290Z,25.10
2019-03-29T06:48:13.645Z,28.37
2019-03-29T06:53:17.188Z,24.33
2019-03-29T06:58:20.483Z,28.10
2019-03-29T07:03:23.773Z,21.20
2019-03-29T07:08:27.148Z,21.93
2019-03-29T07:13:30.514Z,22.00
2019-03-29T07:18:34.072Z,21.27
2019-03-29T07:23:37.367Z,22.87
2019-03-29T07:28:40.679Z,20.83
2019-03-29T07:33:43.973Z,19.43
2019-03-29T07:38:47.556Z,15.77
2019-03-29T07:43:51.078Z,18.83
2019-03-29T07:48:54.386Z,12.40
2019-03-29T07:53:57.913Z,11.10
2019-03-29T07:59:01.192Z,12.23
2019-03-29T08:04:04.553Z,9.73
2019-03-29T08:09:21.360Z,12.07
2019-03-29T08:14:14.926Z,9.63
2019-03-29T08:19:18.682Z,9.00
2019-03-29T08:24:21.979Z,7.80
2019-03-29T08:29:25.266Z,7.67
2019-03-29T08:34:28.570Z,7.27
2019-03-29T08:39:31.880Z,7.70
2019-03-29T08:44:35.436Z,9.90
2019-03-29T08:49:38.825Z,6.63
2019-03-29T08:54:42.114Z,5.30
2019-03-29T08:59:45.736Z,5.90
2019-03-29T09:04:49.662Z,6.97
2019-03-29T09:09:52.973Z,5.30
2019-03-29T09:14:56.523Z,7.07
2019-03-29T09:19:59.819Z,8.50
2019-03-29T09:25:03.109Z,6.93
2019-03-29T09:30:07.279Z,6.80
2019-03-29T09:35:11.477Z,6.53
2019-03-29T09:40:15.594Z,5.73
2019-03-29T09:45:19.130Z,6.57
2019-03-29T09:50:23.163Z,5.60
2019-03-29T09:55:26.862Z,5.27
2019-03-29T10:00:30.140Z,6.57
2019-03-29T10:05:33.442Z,5.90
2019-03-29T10:10:36.776Z,4.83
2019-03-29T10:15:40.081Z,4.63
2019-03-29T10:20:44.173Z,7.20
2019-03-29T10:25:47.489Z,6.33
2019-03-29T10:30:50.803Z,4.87
2019-03-29T10:35:54.348Z,4.73
2019-03-29T10:40:57.659Z,4.57
2019-03-29T10:46:00.963Z,5.70
2019-03-29T10:51:08.220Z,6.63
2019-03-29T10:56:10.541Z,6.93
2019-03-29T11:01:14.067Z,5.53
2019-03-29T11:06:17.608Z,6.90
2019-03-29T11:11:20.979Z,7.60
2019-03-29T11:16:24.493Z,5.07
2019-03-29T11:21:28.043Z,8.13
2019-03-29T11:26:31.585Z,7.40
2019-03-29T11:31:34.870Z,7.07
2019-03-29T11:36:38.152Z,7.30
2019-03-29T11:41:41.698Z,6.57
2019-03-29T11:46:44.994Z,6.07
2019-03-29T11:51:48.529Z,5.90
2019-03-29T11:56:51.842Z,5.07
2019-03-29T12:01:55.129Z,6.00
2019-03-29T12:06:58.686Z,6.03
2019-03-29T12:12:01.980Z,6.53
2019-03-29T12:17:05.535Z,5.43
2019-03-29T12:22:09.076Z,4.53
2019-03-29T12:27:13.104Z,4.03
2019-03-29T12:32:16.641Z,6.03
2019-03-29T12:37:20.157Z,4.80
2019-03-29T12:42:23.695Z,3.83
2019-03-29T12:47:27.695Z,5.83
2019-03-29T12:52:31.821Z,7.30
2019-03-29T12:57:38.700Z,5.10
2019-03-29T13:02:41.374Z,5.67
2019-03-29T13:07:44.660Z,2.90
2019-03-29T13:12:48.179Z,5.00
2019-03-29T13:17:51.707Z,4.57
2019-03-29T13:22:55.248Z,3.87
2019-03-29T13:27:59.556Z,8.07
2019-03-29T13:33:02.978Z,5.93
2019-03-29T13:38:06.261Z,4.00
2019-03-29T13:43:09.796Z,5.73
2019-03-29T13:48:13.322Z,5.60
2019-03-29T13:53:16.611Z,6.33
2019-03-29T13:58:20.146Z,6.60
2019-03-29T14:03:23.678Z,4.93
2019-03-29T14:08:26.970Z,4.90
2019-03-29T14:13:30.493Z,4.13
2019-03-29T14:18:33.772Z,5.47
2019-03-29T14:23:37.323Z,5.20
2019-03-29T14:28:40.889Z,4.73
2019-03-29T14:33:44.411Z,5.37
2019-03-29T14:38:47.712Z,6.43
2019-03-29T14:43:51.268Z,3.57
2019-03-29T14:48:54.570Z,9.13
2019-03-29T14:53:58.123Z,4.63
2019-03-29T14:59:01.411Z,3.93
2019-03-29T15:04:04.691Z,3.90
2019-03-29T15:09:08.229Z,5.23
2019-03-29T15:14:12.225Z,4.27
2019-03-29T15:19:16.260Z,4.17
2019-03-29T15:24:20.311Z,4.80
2019-03-29T15:29:23.842Z,7.40
2019-03-29T15:34:27.124Z,5.47
2019-03-29T15:39:32.858Z,6.37
2019-03-29T15:44:36.396Z,6.07
2019-03-29T15:49:40.435Z,6.07
2019-03-29T15:54:44.164Z,7.30
2019-03-29T15:59:48.201Z,6.33
2019-03-29T16:04:51.741Z,5.53
2019-03-29T16:09:55.359Z,6.83
2019-03-29T16:14:58.632Z,7.17
2019-03-29T16:20:02.090Z,7.50
2019-03-29T16:25:06.966Z,7.63
2019-03-29T16:30:10.497Z,8.20
2019-03-29T16:35:14.017Z,8.53
2019-03-29T16:40:18.260Z,8.47
2019-03-29T16:45:21.789Z,7.80
2019-03-29T16:50:25.179Z,8.23
2019-03-29T16:55:28.478Z,7.70
2019-03-29T17:00:31.876Z,7.03
2019-03-29T17:05:35.405Z,8.30
2019-03-29T17:10:38.791Z,7.30
2019-03-29T17:15:43.136Z,8.00
2019-03-29T17:20:47.245Z,7.63
2019-03-29T17:25:50.507Z,10.13
2019-03-29T17:30:58.421Z,8.13
2019-03-29T17:36:03.511Z,10.63
2019-03-29T17:41:07.059Z,7.47
2019-03-29T17:46:16.615Z,9.73
2019-03-29T17:51:15.601Z,9.07
2019-03-29T17:56:19.230Z,9.97
2019-03-29T18:01:22.568Z,9.40
2019-03-29T18:06:26.655Z,8.93
2019-03-29T18:11:29.935Z,9.97
2019-03-29T18:16:33.221Z,8.70
2019-03-29T18:21:36.771Z,10.00
2019-03-29T18:26:40.051Z,10.43
2019-03-29T18:31:43.593Z,11.53
2019-03-29T18:36:47.616Z,10.53
2019-03-29T18:41:50.977Z,12.67
2019-03-29T18:46:54.263Z,10.07
2019-03-29T18:51:57.785Z,11.77
2019-03-29T18:57:01.098Z,11.87
2019-03-29T19:02:04.794Z,11.07
2019-03-29T19:07:08.329Z,10.10
2019-03-29T19:12:11.854Z,13.67
2019-03-29T19:17:15.131Z,9.90
2019-03-29T19:22:18.446Z,11.93
2019-03-29T19:27:21.959Z,14.97
2019-03-29T19:32:26.078Z,16.37
2019-03-29T19:37:29.610Z,13.13
2019-03-29T19:42:33.700Z,14.70
2019-03-29T19:47:36.988Z,14.90
2019-03-29T19:52:40.284Z,16.63
2019-03-29T19:57:46.471Z,16.97
2019-03-29T20:02:49.083Z,14.03
2019-03-29T20:07:53.009Z,17.87
2019-03-29T20:12:57.493Z,16.43
2019-03-29T20:18:00.786Z,16.43
2019-03-29T20:23:04.418Z,16.33
2019-03-29T20:28:07.960Z,18.57
2019-03-29T20:33:13.279Z,16.47
2019-03-29T20:38:16.773Z,19.10
2019-03-29T20:43:20.076Z,18.63
2019-03-29T20:48:23.363Z,17.67
2019-03-29T20:53:26.675Z,18.67
2019-03-29T20:58:29.967Z,14.40
2019-03-29T21:03:33.254Z,16.67
2019-03-29T21:08:36.797Z,17.30
2019-03-29T21:13:40.158Z,16.70
2019-03-29T21:18:43.482Z,40.53
2019-03-29T21:23:47.354Z,36.30
2019-03-29T21:28:52.882Z,29.47
2019-03-29T21:33:55.745Z,23.53
2019-03-29T21:38:59.047Z,14.17
2019-03-29T21:54:55.996Z,12.83
2019-03-29T22:10:56.290Z,17.07
2019-03-29T22:22:05.505Z,10.40
2019-03-29T22:38:46.684Z,10.77
2019-03-29T22:42:22.689Z,9.47
2019-03-29T23:10:53.649Z,6.90
2019-03-29T23:19:58.079Z,6.37
2019-03-29T23:32:39.285Z,5.07
2019-03-29T23:35:22.259Z,4.93
2019-03-29T23:47:19.622Z,7.77
2019-03-29T23:50:50.262Z,6.27
2019-03-29T23:55:56.730Z,6.23
